This is the latest recevied weather packets stored in our database for station/object OE9GTV. If no packets are shown the sender has not sent any weather packets the latest 10 day(s).
| Time | Temp. | Humidity | Pressure | Rain* | Wind** | Luminosity | Snow |
|---|---|---|---|---|---|---|---|
| 1777709472 | 18.89° C | 53% | 1019.9 hPa | 0 mm | - | 0 W/m² | - |
| 1777708872 | 17.78° C | 54% | 1020 hPa | 0 mm | - | 0 W/m² | - |
| 1777708272 | 17.78° C | 57% | 1020.1 hPa | 0 mm | - | 0 W/m² | - |
| 1777707671 | 16.67° C | 59% | 1020.3 hPa | 0 mm | - | 0 W/m² | - |
| 1777707072 | 16.11° C | 60% | 1020.4 hPa | 0 mm | - | 0 W/m² | - |
| 1777706472 | 15.56° C | 63% | 1020.4 hPa | 0 mm | - | 0 W/m² | - |
| 1777705871 | 12.78° C | 77% | 1020.4 hPa | 0 mm | - | 0 W/m² | - |
| 1777705271 | 11.67° C | 79% | 1020.5 hPa | 0 mm | - | 0 W/m² | - |
| 1777704671 | 11.11° C | 79% | 1020.7 hPa | 0 mm | - | 0 W/m² | - |
| 1777704071 | 10.56° C | 79% | 1020.7 hPa | 0 mm | - | 0 W/m² | - |
| 1777703471 | 10.56° C | 79% | 1020.7 hPa | 0 mm | - | 0 W/m² | - |
| 1777702871 | 10° C | 79% | 1020.8 hPa | 0 mm | - | 0 W/m² | - |
| 1777702271 | 10° C | 79% | 1020.8 hPa | 0 mm | - | 0 W/m² | - |
| 1777701671 | 9.44° C | 78% | 1020.8 hPa | 0 mm | - | 0 W/m² | - |
| 1777701071 | 9.44° C | 78% | 1020.8 hPa | 0 mm | - | 0 W/m² | - |
| 1777700471 | 9.44° C | 77% | 1020.8 hPa | 0 mm | - | 0 W/m² | - |
| 1777699871 | 9.44° C | 77% | 1020.8 hPa | 0 mm | - | 0 W/m² | - |
| 1777699271 | 9.44° C | 77% | 1020.8 hPa | 0 mm | - | 0 W/m² | - |
| 1777698670 | 9.44° C | 77% | 1020.7 hPa | 0 mm | - | 0 W/m² | - |
| 1777698071 | 9.44° C | 76% | 1020.7 hPa | 0 mm | - | 0 W/m² | - |
| 1777697470 | 9.44° C | 76% | 1020.6 hPa | 0 mm | - | 0 W/m² | - |
| 1777696870 | 9.44° C | 75% | 1020.6 hPa | 0 mm | - | 0 W/m² | - |
| 1777696270 | 9.44° C | 75% | 1020.6 hPa | 0 mm | - | 0 W/m² | - |
| 1777695670 | 9.44° C | 75% | 1020.6 hPa | 0 mm | - | 0 W/m² | - |
| 1777695070 | 9.44° C | 74% | 1020.6 hPa | 0 mm | - | 0 W/m² | - |
* Rain latest hour (hover to see other rain measurements)
** Current wind speed in m/s (hover to see current wind gust speed)